Time;durP1;ratioP1;P1;durP2;ratioP2;P2;SDS_P1;SDS_P2;PMS_P1;PMS_P2;Temp;Humidity;BMP_temperature;BMP_pressure;BME280_temperature;BME280_humidity;BME280_pressure;Samples;Min_cycle;Max_cycle;Signal;HPM_P1;HPM_P2
2023/10/05 00:02:08;;;;;;;5.73;2.83;;;13.30;99.90;;;;;;4981574;28;20227;-61
2023/10/05 00:04:41;;;;;;;5.13;2.40;;;13.30;99.90;;;;;;4981499;28;20329;-60
2023/10/05 00:07:17;;;;;;;7.93;2.90;;;13.30;99.90;;;;;;4979776;28;20686;-60
2023/10/05 00:09:46;;;;;;;6.23;2.60;;;13.30;99.90;;;;;;4979837;28;20302;-61
2023/10/05 00:12:20;;;;;;;6.80;2.67;;;13.30;99.90;;;;;;4981694;28;20224;-60
2023/10/05 00:14:55;;;;;;;6.10;2.60;;;13.20;99.90;;;;;;4981002;28;20747;-60
2023/10/05 00:17:24;;;;;;;5.53;2.57;;;13.20;99.90;;;;;;4983149;28;20619;-61
2023/10/05 00:19:52;;;;;;;8.20;2.60;;;13.20;99.90;;;;;;4981367;28;20230;-60
2023/10/05 00:22:21;;;;;;;4.67;2.30;;;13.20;99.90;;;;;;4979700;28;20206;-59
2023/10/05 00:24:49;;;;;;;6.23;2.60;;;13.20;99.90;;;;;;4982173;28;20195;-60
2023/10/05 00:27:20;;;;;;;5.03;2.60;;;13.20;99.90;;;;;;4981756;28;20706;-61
2023/10/05 00:29:54;;;;;;;8.47;2.50;;;13.10;99.90;;;;;;4980221;28;20232;-61
2023/10/05 00:32:26;;;;;;;3.10;2.60;;;13.10;99.90;;;;;;4977791;28;20224;-61
2023/10/05 00:35:09;;;;;;;5.37;2.57;;;13.10;99.90;;;;;;4978588;28;20222;-60
2023/10/05 00:37:38;;;;;;;8.53;2.30;;;13.10;99.90;;;;;;4978235;28;20241;-60
2023/10/05 00:40:11;;;;;;;2.60;2.40;;;13.10;99.90;;;;;;4981031;28;20191;-60
2023/10/05 00:42:41;;;;;;;10.93;3.10;;;13.10;99.90;;;;;;4982689;28;20222;-61
2023/10/05 00:45:12;;;;;;;7.50;2.67;;;13.00;99.90;;;;;;4978966;28;20222;-60
2023/10/05 00:47:42;;;;;;;6.60;2.83;;;13.00;99.90;;;;;;4981719;28;20232;-61
2023/10/05 00:50:11;;;;;;;7.93;2.83;;;13.10;99.90;;;;;;4981929;28;20232;-60
2023/10/05 00:52:39;;;;;;;6.13;2.70;;;13.10;99.90;;;;;;4984229;28;20235;-60
2023/10/05 00:55:16;;;;;;;4.97;2.33;;;13.10;99.90;;;;;;4979931;28;20692;-60
2023/10/05 00:57:48;;;;;;;8.47;2.93;;;13.00;99.90;;;;;;4996182;28;20281;-60
2023/10/05 01:00:28;;;;;;;4.27;2.47;;;13.00;99.90;;;;;;4979155;28;20265;-61
2023/10/05 01:03:22;;;;;;;7.70;2.87;;;13.00;99.90;;;;;;4981412;28;20313;-61
2023/10/05 01:06:01;;;;;;;9.00;3.10;;;13.00;99.90;;;;;;4979948;28;20661;-60
2023/10/05 01:08:32;;;;;;;7.13;2.90;;;12.90;99.90;;;;;;4981801;28;20236;-60
2023/10/05 01:11:01;;;;;;;9.03;3.30;;;13.00;99.90;;;;;;4979926;28;20234;-60
2023/10/05 01:13:32;;;;;;;7.07;2.97;;;13.00;99.90;;;;;;4979633;28;20209;-60
2023/10/05 01:16:15;;;;;;;7.10;2.90;;;13.00;99.90;;;;;;4981937;28;20187;-60
2023/10/05 01:18:45;;;;;;;7.13;2.87;;;13.00;99.90;;;;;;4981450;28;20278;-60
2023/10/05 01:21:13;;;;;;;7.77;3.23;;;13.00;99.90;;;;;;4978886;28;20719;-60
2023/10/05 01:23:44;;;;;;;5.43;2.67;;;13.10;99.90;;;;;;4982346;28;20234;-60
2023/10/05 01:26:13;;;;;;;9.10;3.67;;;13.10;99.90;;;;;;4981610;28;20225;-60
2023/10/05 01:28:42;;;;;;;5.13;3.13;;;13.10;99.90;;;;;;4981075;28;21562;-60
2023/10/05 01:31:16;;;;;;;11.53;3.43;;;13.10;99.90;;;;;;4978245;28;20581;-60
2023/10/05 01:33:46;;;;;;;7.03;3.37;;;13.20;99.90;;;;;;4977354;28;20594;-61
2023/10/05 01:36:17;;;;;;;6.00;3.13;;;13.10;99.90;;;;;;4982704;28;20321;-60
2023/10/05 01:38:48;;;;;;;7.73;3.33;;;13.20;99.90;;;;;;4978355;28;20230;-60
2023/10/05 01:41:21;;;;;;;8.53;3.20;;;13.20;99.90;;;;;;4980363;28;20590;-61
2023/10/05 01:43:51;;;;;;;9.40;3.20;;;13.20;99.90;;;;;;4977393;28;20224;-60
2023/10/05 01:46:21;;;;;;;7.60;3.17;;;13.20;99.90;;;;;;4978547;28;20284;-60
2023/10/05 01:48:51;;;;;;;9.97;3.40;;;13.20;99.90;;;;;;4976914;28;20195;-61
2023/10/05 01:51:23;;;;;;;7.30;3.47;;;13.20;99.90;;;;;;4978107;28;20293;-60
2023/10/05 01:54:02;;;;;;;10.20;3.30;;;13.20;99.90;;;;;;4979600;28;20223;-60
2023/10/05 01:56:32;;;;;;;9.47;3.63;;;13.20;99.90;;;;;;4976023;28;20228;-60
2023/10/05 01:59:06;;;;;;;7.43;3.07;;;13.20;99.90;;;;;;4979114;28;20227;-61
2023/10/05 02:01:39;;;;;;;8.07;3.50;;;13.20;99.90;;;;;;4979852;28;20228;-60
2023/10/05 02:04:09;;;;;;;8.83;3.10;;;13.20;99.90;;;;;;4994549;28;20197;-61
2023/10/05 02:06:40;;;;;;;6.23;3.53;;;13.30;99.90;;;;;;4976080;28;20770;-61
2023/10/05 02:09:11;;;;;;;6.53;3.10;;;13.30;99.90;;;;;;4978776;28;20445;-60
2023/10/05 02:11:41;;;;;;;12.57;3.37;;;13.40;99.90;;;;;;4980745;28;20237;-61
2023/10/05 02:14:12;;;;;;;8.87;3.20;;;13.30;99.90;;;;;;4986652;28;20254;-61
2023/10/05 02:16:42;;;;;;;9.70;3.07;;;13.40;99.90;;;;;;4984298;28;20231;-60
2023/10/05 02:19:10;;;;;;;4.60;2.73;;;13.40;99.90;;;;;;4983308;28;20221;-60
2023/10/05 02:21:39;;;;;;;8.33;2.90;;;13.40;99.90;;;;;;4984446;28;20231;-60
2023/10/05 02:24:16;;;;;;;5.77;2.70;;;13.40;99.90;;;;;;4983725;28;20226;-61
2023/10/05 02:27:09;;;;;;;11.40;3.33;;;13.40;99.90;;;;;;4983683;28;20273;-61
2023/10/05 02:29:40;;;;;;;7.20;3.30;;;13.40;99.90;;;;;;4983006;28;20286;-61
2023/10/05 02:32:11;;;;;;;6.57;3.00;;;13.40;99.90;;;;;;4984446;28;20300;-60
2023/10/05 02:34:41;;;;;;;3.47;2.67;;;13.50;99.90;;;;;;4997421;28;20736;-60
2023/10/05 02:37:11;;;;;;;4.03;2.60;;;13.50;99.90;;;;;;4982425;28;20223;-60
2023/10/05 02:39:42;;;;;;;6.30;2.90;;;13.50;99.90;;;;;;4982338;28;20231;-61
2023/10/05 02:42:14;;;;;;;9.70;3.00;;;13.40;99.90;;;;;;4980922;28;20812;-61
2023/10/05 02:44:45;;;;;;;7.17;3.20;;;13.50;99.90;;;;;;4980101;28;20701;-60
2023/10/05 02:47:15;;;;;;;7.70;3.23;;;13.40;99.90;;;;;;4983105;28;20234;-60
2023/10/05 02:49:44;;;;;;;8.00;2.77;;;13.40;99.90;;;;;;4984895;28;20270;-60
2023/10/05 02:52:15;;;;;;;6.17;3.13;;;13.40;99.90;;;;;;4982461;28;20319;-60
2023/10/05 02:54:47;;;;;;;4.00;2.90;;;13.40;99.90;;;;;;4980563;28;20224;-60
2023/10/05 02:57:17;;;;;;;8.93;3.17;;;13.30;99.90;;;;;;4979200;28;20232;-60
2023/10/05 02:59:46;;;;;;;6.40;3.47;;;13.30;99.90;;;;;;4982471;28;20339;-60
2023/10/05 03:02:16;;;;;;;6.67;2.73;;;13.40;99.90;;;;;;4984631;28;20658;-59
2023/10/05 03:04:46;;;;;;;5.33;2.87;;;13.30;99.90;;;;;;4981951;28;20256;-59
2023/10/05 03:07:17;;;;;;;6.00;2.83;;;13.30;99.90;;;;;;4982550;28;20208;-59
2023/10/05 03:09:49;;;;;;;7.20;3.40;;;13.30;99.90;;;;;;5012088;28;20297;-60
2023/10/05 03:12:20;;;;;;;8.30;3.50;;;13.30;99.90;;;;;;4997657;28;20696;-60
2023/10/05 03:14:51;;;;;;;6.90;2.83;;;13.20;99.90;;;;;;5001810;28;20341;-60
2023/10/05 03:17:21;;;;;;;3.23;2.90;;;13.20;99.90;;;;;;5003371;28;20910;-60
2023/10/05 03:19:51;;;;;;;6.83;3.20;;;13.20;99.90;;;;;;5000494;28;20297;-60
2023/10/05 03:22:23;;;;;;;7.47;3.00;;;13.10;99.90;;;;;;5003243;28;20202;-58
2023/10/05 03:24:56;;;;;;;6.77;3.20;;;13.10;99.90;;;;;;5002623;28;20191;-60
2023/10/05 03:27:25;;;;;;;7.03;3.30;;;13.00;99.90;;;;;;5002041;28;20224;-60
2023/10/05 03:30:00;;;;;;;5.27;2.97;;;13.00;99.90;;;;;;5003055;28;20542;-60
2023/10/05 03:32:30;;;;;;;6.20;2.87;;;13.00;99.90;;;;;;5000188;28;20649;-60
2023/10/05 03:34:59;;;;;;;11.17;3.33;;;13.00;99.90;;;;;;4981819;28;20229;-60
2023/10/05 03:37:29;;;;;;;3.30;2.93;;;13.10;99.90;;;;;;5005253;28;20593;-59
2023/10/05 03:40:08;;;;;;;7.43;3.00;;;13.00;99.90;;;;;;5001247;28;20519;-60
2023/10/05 03:42:36;;;;;;;7.83;3.40;;;13.10;99.90;;;;;;5000149;28;20226;-60
2023/10/05 03:45:09;;;;;;;8.10;3.03;;;13.20;99.90;;;;;;4981504;28;20225;-60
2023/10/05 03:47:38;;;;;;;5.47;3.33;;;13.20;99.90;;;;;;5002134;28;20247;-60
2023/10/05 03:50:08;;;;;;;8.73;3.30;;;13.20;99.90;;;;;;5001577;28;20700;-60
2023/10/05 03:52:36;;;;;;;7.07;3.40;;;13.20;99.90;;;;;;5001854;28;20226;-60
2023/10/05 03:55:10;;;;;;;9.83;3.60;;;13.20;99.90;;;;;;5000180;28;20206;-60
2023/10/05 03:57:38;;;;;;;8.63;3.50;;;13.20;99.90;;;;;;4998049;28;20564;-60
2023/10/05 04:00:22;;;;;;;7.00;3.50;;;13.20;99.90;;;;;;4999564;28;20226;-60
2023/10/05 04:02:52;;;;;;;6.10;3.40;;;13.20;99.90;;;;;;4998264;28;20330;-60
2023/10/05 04:05:23;;;;;;;5.40;3.30;;;13.30;99.90;;;;;;5001326;28;20230;-60
2023/10/05 04:07:52;;;;;;;5.90;3.60;;;13.20;99.90;;;;;;4992782;28;20237;-60
2023/10/05 04:10:28;;;;;;;10.47;3.53;;;13.20;99.90;;;;;;4980419;28;20202;-59
2023/10/05 04:12:59;;;;;;;10.80;3.80;;;13.20;99.90;;;;;;4980410;28;20211;-60
2023/10/05 04:15:29;;;;;;;9.10;3.70;;;13.10;99.90;;;;;;4979649;28;20235;-60
2023/10/05 04:17:57;;;;;;;4.63;3.60;;;13.10;99.90;;;;;;4981331;28;20230;-59
2023/10/05 04:20:28;;;;;;;7.90;3.50;;;13.10;99.90;;;;;;4981614;28;20237;-60
2023/10/05 04:22:57;;;;;;;8.73;3.80;;;13.10;99.90;;;;;;4982986;28;20251;-60
2023/10/05 04:25:27;;;;;;;6.13;3.43;;;13.10;99.90;;;;;;4981695;28;20298;-59
2023/10/05 04:27:55;;;;;;;8.47;3.47;;;13.10;99.90;;;;;;4983204;28;20195;-60
2023/10/05 04:30:24;;;;;;;7.50;3.70;;;13.10;99.90;;;;;;4997591;28;20219;-59
2023/10/05 04:32:53;;;;;;;9.63;3.30;;;13.10;99.90;;;;;;4983041;28;20235;-60
2023/10/05 04:35:23;;;;;;;9.23;3.50;;;13.20;99.90;;;;;;4980623;28;20679;-60
2023/10/05 04:37:51;;;;;;;13.90;4.13;;;13.20;99.90;;;;;;4981326;28;20741;-59
2023/10/05 04:40:23;;;;;;;8.10;3.53;;;13.20;99.90;;;;;;4980145;28;20594;-59
2023/10/05 04:42:58;;;;;;;5.57;3.53;;;13.20;99.90;;;;;;4984131;28;20523;-53
2023/10/05 04:45:28;;;;;;;5.63;3.10;;;13.10;99.90;;;;;;4982388;28;20231;-54
2023/10/05 04:47:59;;;;;;;12.47;3.50;;;13.10;99.90;;;;;;4981444;28;20242;-55
2023/10/05 04:50:28;;;;;;;9.63;3.80;;;13.20;99.90;;;;;;4981324;28;20222;-55
2023/10/05 04:53:00;;;;;;;8.53;3.30;;;13.10;99.90;;;;;;4982582;28;20236;-51
2023/10/05 04:55:32;;;;;;;6.73;3.20;;;13.10;99.90;;;;;;4981902;28;20201;-55
2023/10/05 04:58:21;;;;;;;10.93;3.70;;;13.10;99.90;;;;;;4966702;28;20214;-53
2023/10/05 05:01:04;;;;;;;7.03;3.23;;;13.10;99.90;;;;;;4964094;28;20219;-52
2023/10/05 05:03:48;;;;;;;12.27;3.73;;;13.10;99.90;;;;;;4979005;28;20218;-52
2023/10/05 05:06:18;;;;;;;5.13;3.27;;;13.10;99.90;;;;;;4979784;28;20226;-50
2023/10/05 05:08:46;;;;;;;11.87;3.50;;;13.00;99.90;;;;;;5003313;28;20708;-52
2023/10/05 05:11:19;;;;;;;6.43;3.23;;;13.10;99.90;;;;;;4999695;28;20228;-54
2023/10/05 05:13:50;;;;;;;7.30;3.40;;;13.00;99.90;;;;;;5000515;28;20688;-52
2023/10/05 05:16:21;;;;;;;9.27;3.93;;;13.00;99.90;;;;;;5002488;28;20199;-53
2023/10/05 05:18:49;;;;;;;8.13;3.37;;;13.00;99.90;;;;;;5004347;28;20218;-52
2023/10/05 05:21:18;;;;;;;10.87;3.70;;;13.00;99.90;;;;;;4999048;28;20214;-54
2023/10/05 05:23:47;;;;;;;15.03;3.60;;;13.00;99.90;;;;;;5003121;28;20224;-52
2023/10/05 05:26:15;;;;;;;8.60;3.60;;;13.00;99.90;;;;;;5001334;28;20215;-51
2023/10/05 05:28:44;;;;;;;7.97;3.53;;;13.00;99.90;;;;;;5000307;28;20305;-53
2023/10/05 05:31:16;;;;;;;6.17;3.83;;;12.90;99.90;;;;;;5005463;28;20837;-53
2023/10/05 05:33:45;;;;;;;5.20;3.47;;;12.90;99.90;;;;;;5005459;28;20674;-52
2023/10/05 05:36:16;;;;;;;9.33;3.77;;;12.90;99.90;;;;;;5003294;28;20242;-54
2023/10/05 05:38:49;;;;;;;5.23;3.70;;;12.80;99.90;;;;;;5002428;28;20316;-52
2023/10/05 05:41:19;;;;;;;11.60;3.73;;;12.80;99.90;;;;;;5002212;28;20621;-53
2023/10/05 05:43:47;;;;;;;12.30;3.27;;;12.80;99.90;;;;;;5003787;28;20237;-52
2023/10/05 05:46:17;;;;;;;10.53;3.57;;;12.80;99.90;;;;;;5000982;28;20566;-54
2023/10/05 05:48:48;;;;;;;10.23;3.80;;;12.80;99.90;;;;;;5006251;28;20213;-52
2023/10/05 05:51:17;;;;;;;7.77;3.47;;;12.80;99.90;;;;;;5006580;28;20595;-53
2023/10/05 05:53:46;;;;;;;13.47;3.80;;;12.80;99.90;;;;;;5006945;28;20224;-52
2023/10/05 05:56:18;;;;;;;10.90;3.87;;;12.80;99.90;;;;;;5004871;28;20277;-52
2023/10/05 05:58:50;;;;;;;7.87;3.60;;;12.80;99.90;;;;;;5006766;28;20613;-54
2023/10/05 06:01:20;;;;;;;6.43;3.63;;;12.80;99.90;;;;;;5000186;28;20190;-54
2023/10/05 06:03:49;;;;;;;7.83;3.17;;;12.80;99.90;;;;;;5004739;28;20200;-54
2023/10/05 06:06:20;;;;;;;12.03;3.63;;;12.90;99.90;;;;;;5006542;28;20231;-53
2023/10/05 06:08:49;;;;;;;9.50;4.10;;;12.90;99.90;;;;;;4996680;28;20235;-53
2023/10/05 06:11:17;;;;;;;12.20;3.53;;;12.90;99.90;;;;;;4985494;28;20229;-55
2023/10/05 06:13:46;;;;;;;11.30;4.10;;;12.90;99.90;;;;;;4987532;28;20294;-54
2023/10/05 06:16:15;;;;;;;8.97;3.87;;;12.90;99.90;;;;;;4986861;28;20227;-54
2023/10/05 06:18:45;;;;;;;9.20;4.00;;;12.90;99.90;;;;;;4980357;28;20450;-54
2023/10/05 06:21:13;;;;;;;8.33;3.80;;;12.90;99.90;;;;;;4981783;28;20477;-53
2023/10/05 06:23:41;;;;;;;11.30;3.80;;;13.00;99.90;;;;;;4985965;28;20566;-55
2023/10/05 06:26:11;;;;;;;8.80;3.60;;;13.00;99.90;;;;;;4988259;28;20681;-52
2023/10/05 06:28:42;;;;;;;5.87;3.30;;;13.00;99.90;;;;;;4983835;28;20231;-54
2023/10/05 06:31:12;;;;;;;6.70;3.30;;;13.10;99.90;;;;;;4987199;28;20580;-54
2023/10/05 06:33:42;;;;;;;8.73;3.70;;;13.10;99.90;;;;;;4985540;28;20230;-53
2023/10/05 06:36:12;;;;;;;9.07;4.17;;;13.10;99.90;;;;;;4989759;28;20260;-50
2023/10/05 06:38:43;;;;;;;13.90;3.87;;;13.20;99.90;;;;;;4989159;28;20248;-54
2023/10/05 06:41:11;;;;;;;11.33;3.87;;;13.20;99.90;;;;;;4986859;28;20236;-52
2023/10/05 06:43:40;;;;;;;9.03;3.70;;;13.20;99.90;;;;;;4984304;28;20229;-54
2023/10/05 06:46:14;;;;;;;9.67;3.43;;;13.20;99.90;;;;;;4985650;28;20213;-50
2023/10/05 06:48:43;;;;;;;7.53;3.77;;;13.30;99.90;;;;;;4988263;28;20223;-50
2023/10/05 06:51:14;;;;;;;7.93;3.47;;;13.30;99.90;;;;;;4991739;28;20230;-53
2023/10/05 06:53:43;;;;;;;9.60;3.50;;;13.30;99.90;;;;;;4966139;28;20310;-51
2023/10/05 06:56:12;;;;;;;8.77;3.80;;;13.40;99.90;;;;;;4987290;28;20231;-52
2023/10/05 06:58:41;;;;;;;10.90;3.90;;;13.50;99.90;;;;;;4987711;28;20232;-51
2023/10/05 07:01:10;;;;;;;5.97;3.67;;;13.60;99.90;;;;;;4989222;28;20225;-52
2023/10/05 07:03:39;;;;;;;9.70;3.43;;;13.60;99.90;;;;;;4988522;28;20309;-50
2023/10/05 07:06:08;;;;;;;12.63;4.70;;;13.60;99.90;;;;;;4985298;28;20231;-55
2023/10/05 07:08:37;;;;;;;6.57;3.53;;;13.60;99.90;;;;;;4989717;28;20226;-52
2023/10/05 07:11:07;;;;;;;8.13;3.50;;;13.60;99.90;;;;;;4986571;28;20234;-49
2023/10/05 07:13:35;;;;;;;10.17;3.70;;;13.70;99.90;;;;;;4987757;28;20585;-53
2023/10/05 07:16:05;;;;;;;8.53;4.00;;;13.70;99.90;;;;;;4986732;28;20193;-52
2023/10/05 07:18:34;;;;;;;13.23;3.77;;;13.70;99.90;;;;;;4984137;28;20223;-54
2023/10/05 07:21:04;;;;;;;12.17;3.70;;;13.80;99.90;;;;;;4985674;28;20235;-54
2023/10/05 07:23:33;;;;;;;6.53;4.10;;;13.80;99.90;;;;;;4981166;28;20709;-52
2023/10/05 07:26:03;;;;;;;10.10;3.30;;;13.80;99.90;;;;;;4985240;28;20702;-53
2023/10/05 07:28:32;;;;;;;11.07;3.53;;;13.90;99.90;;;;;;4988099;28;20249;-53
2023/10/05 07:31:02;;;;;;;8.63;3.60;;;13.90;99.90;;;;;;4987805;28;20195;-52
2023/10/05 07:33:33;;;;;;;7.50;3.77;;;13.90;99.90;;;;;;4981734;28;20564;-49
2023/10/05 07:36:02;;;;;;;12.57;3.60;;;13.90;99.90;;;;;;4980952;28;20222;-51
2023/10/05 07:38:31;;;;;;;8.37;3.27;;;14.00;99.90;;;;;;4999459;28;20243;-53
2023/10/05 07:41:03;;;;;;;14.70;3.50;;;14.00;99.90;;;;;;4985540;28;20238;-53
2023/10/05 07:43:34;;;;;;;10.17;3.40;;;14.00;99.90;;;;;;4988573;28;20689;-51
2023/10/05 07:46:04;;;;;;;10.00;3.50;;;14.00;99.90;;;;;;4985699;28;20253;-53
2023/10/05 07:48:33;;;;;;;11.07;3.83;;;14.00;99.90;;;;;;4987910;28;20284;-51
2023/10/05 07:51:01;;;;;;;14.07;3.80;;;14.10;99.90;;;;;;4984967;28;20222;-50
2023/10/05 07:53:31;;;;;;;8.33;3.77;;;14.00;99.90;;;;;;4971209;28;20236;-49
2023/10/05 07:56:00;;;;;;;8.67;3.73;;;14.10;99.90;;;;;;4998065;28;20257;-51
2023/10/05 07:58:30;;;;;;;9.30;3.53;;;14.10;99.90;;;;;;4986569;28;20208;-50
2023/10/05 08:01:01;;;;;;;10.87;4.33;;;14.10;99.90;;;;;;4981635;28;20223;-52
2023/10/05 08:03:30;;;;;;;9.23;3.43;;;14.30;99.90;;;;;;4978557;28;20640;-48
2023/10/05 08:05:59;;;;;;;13.97;3.77;;;14.30;99.90;;;;;;4983502;28;20253;-51
2023/10/05 08:08:28;;;;;;;10.83;3.50;;;14.30;99.90;;;;;;4983888;28;20250;-52
2023/10/05 08:10:57;;;;;;;11.23;4.20;;;14.30;99.90;;;;;;4987246;28;20224;-49
2023/10/05 08:13:25;;;;;;;14.63;4.20;;;14.30;99.90;;;;;;4984208;28;20660;-51
2023/10/05 08:15:55;;;;;;;16.77;4.20;;;14.30;99.90;;;;;;4983574;28;20199;-53
2023/10/05 08:18:24;;;;;;;13.83;4.03;;;14.20;99.90;;;;;;4982284;28;20331;-53
2023/10/05 08:20:53;;;;;;;13.30;3.73;;;14.30;99.90;;;;;;4981268;28;20232;-52
2023/10/05 08:23:22;;;;;;;10.97;3.40;;;14.30;99.90;;;;;;4990231;28;20310;-50
2023/10/05 08:25:51;;;;;;;11.57;4.13;;;14.30;99.90;;;;;;4992354;28;20600;-49
2023/10/05 08:28:20;;;;;;;8.90;4.20;;;14.40;99.90;;;;;;4983639;28;20288;-52
2023/10/05 08:31:04;;;;;;;11.73;4.10;;;14.50;99.90;;;;;;4983839;28;20543;-50
2023/10/05 08:33:37;;;;;;;9.73;3.97;;;14.50;99.90;;;;;;4982996;28;20610;-52
2023/10/05 08:36:11;;;;;;;11.97;3.57;;;14.60;99.90;;;;;;4985887;28;20219;-51
2023/10/05 08:38:40;;;;;;;7.53;3.60;;;14.70;99.90;;;;;;4987670;28;20234;-52
2023/10/05 08:41:14;;;;;;;10.90;3.97;;;14.70;99.90;;;;;;4983175;28;20262;-51
2023/10/05 08:43:46;;;;;;;20.00;4.30;;;14.70;99.90;;;;;;4985080;28;20781;-51
2023/10/05 08:46:16;;;;;;;15.03;4.00;;;14.80;99.90;;;;;;4980253;28;20737;-53
2023/10/05 08:48:47;;;;;;;13.37;3.57;;;14.80;99.90;;;;;;4983790;28;20704;-51
2023/10/05 08:51:16;;;;;;;17.53;4.07;;;14.80;99.90;;;;;;4986389;28;20217;-52
2023/10/05 08:53:48;;;;;;;12.70;4.47;;;14.80;99.90;;;;;;4986676;28;20256;-51
2023/10/05 08:56:20;;;;;;;11.13;3.63;;;14.90;99.90;;;;;;4983504;28;20212;-52
2023/10/05 08:58:51;;;;;;;14.53;4.53;;;14.90;99.90;;;;;;4981516;28;20237;-53
2023/10/05 09:01:25;;;;;;;16.30;4.00;;;14.90;99.90;;;;;;4981914;28;20694;-52
2023/10/05 09:04:01;;;;;;;12.73;4.07;;;14.90;99.90;;;;;;4985707;28;20251;-51
2023/10/05 09:06:31;;;;;;;11.07;3.87;;;14.90;99.90;;;;;;4985461;28;20320;-54
2023/10/05 09:09:07;;;;;;;13.23;4.20;;;14.90;99.90;;;;;;4985938;28;20237;-52
2023/10/05 09:11:37;;;;;;;15.17;4.00;;;14.90;99.90;;;;;;4967281;28;20308;-55
2023/10/05 09:14:23;;;;;;;15.70;3.97;;;15.00;99.90;;;;;;4976768;28;20331;-53
2023/10/05 09:16:57;;;;;;;18.50;3.90;;;15.00;99.90;;;;;;4987797;28;20632;-54
2023/10/05 09:19:29;;;;;;;11.93;3.53;;;15.10;99.90;;;;;;4983847;28;20804;-51
2023/10/05 09:22:12;;;;;;;13.27;4.53;;;15.10;99.90;;;;;;4979780;28;20311;-51
2023/10/05 09:24:43;;;;;;;12.70;4.07;;;15.00;99.90;;;;;;4989623;28;20571;-53
2023/10/05 09:27:17;;;;;;;9.37;3.63;;;15.20;99.90;;;;;;4985458;28;20737;-51
2023/10/05 09:29:46;;;;;;;15.83;4.43;;;15.20;99.90;;;;;;4988967;28;20229;-51
2023/10/05 09:32:30;;;;;;;11.03;3.77;;;15.20;99.90;;;;;;4989782;28;20230;-52
2023/10/05 09:35:01;;;;;;;8.13;3.50;;;15.30;99.90;;;;;;4987187;28;20232;-52
2023/10/05 09:37:33;;;;;;;11.27;4.10;;;15.40;99.90;;;;;;5002189;28;20271;-53
2023/10/05 09:40:03;;;;;;;12.37;3.73;;;15.40;99.90;;;;;;4987888;28;20264;-54
2023/10/05 09:42:36;;;;;;;8.97;3.67;;;15.40;99.90;;;;;;4991072;28;20248;-53
2023/10/05 09:45:12;;;;;;;13.60;3.50;;;15.60;99.90;;;;;;4984351;28;20229;-53
2023/10/05 09:47:42;;;;;;;6.20;3.73;;;15.70;99.90;;;;;;4987052;28;20695;-54
2023/10/05 09:50:15;;;;;;;11.53;3.50;;;15.60;99.90;;;;;;4986250;28;20225;-55
2023/10/05 09:52:45;;;;;;;12.30;4.20;;;15.60;99.90;;;;;;4984866;28;20341;-53
2023/10/05 09:55:18;;;;;;;13.33;4.37;;;15.70;99.90;;;;;;4987471;28;20198;-52
2023/10/05 09:57:51;;;;;;;4.97;3.33;;;15.90;99.90;;;;;;4989835;28;20200;-53
2023/10/05 10:00:30;;;;;;;13.27;4.10;;;15.90;99.90;;;;;;4990036;28;20233;-53
2023/10/05 10:03:01;;;;;;;13.20;3.97;;;15.90;99.90;;;;;;4982872;28;20243;-50
2023/10/05 10:05:36;;;;;;;16.63;3.40;;;16.00;99.90;;;;;;4982515;28;20767;-51
2023/10/05 10:08:12;;;;;;;13.87;3.70;;;16.00;99.90;;;;;;4988332;28;20230;-53
2023/10/05 10:10:51;;;;;;;9.17;3.50;;;16.10;99.90;;;;;;4989335;28;20221;-53
2023/10/05 10:13:22;;;;;;;11.70;3.47;;;16.20;99.90;;;;;;4991325;28;20203;-53
2023/10/05 10:15:54;;;;;;;9.77;3.47;;;16.30;99.90;;;;;;4987326;28;20221;-53
2023/10/05 10:18:34;;;;;;;14.37;3.70;;;16.40;99.90;;;;;;4984995;28;20233;-53
2023/10/05 10:21:12;;;;;;;9.97;3.60;;;16.50;99.90;;;;;;4965892;28;20316;-53
2023/10/05 10:23:50;;;;;;;11.83;3.53;;;16.50;99.90;;;;;;4984509;28;20570;-52
2023/10/05 10:26:24;;;;;;;8.50;3.20;;;16.60;99.50;;;;;;4974271;28;20788;-54
2023/10/05 10:28:57;;;;;;;9.43;3.53;;;16.70;98.60;;;;;;4985721;28;20240;-52
2023/10/05 10:31:42;;;;;;;6.23;3.10;;;16.90;97.00;;;;;;4991209;28;20226;-53
2023/10/05 10:34:18;;;;;;;7.77;3.30;;;17.00;91.90;;;;;;4984827;28;20188;-52
2023/10/05 10:36:56;;;;;;;13.13;3.50;;;17.10;91.40;;;;;;4986211;28;20715;-50
2023/10/05 10:39:28;;;;;;;9.33;2.67;;;17.20;92.80;;;;;;4987408;28;20570;-54
2023/10/05 10:42:04;;;;;;;7.50;2.60;;;17.40;88.80;;;;;;4986868;28;20216;-54
2023/10/05 10:44:56;;;;;;;8.00;2.77;;;17.50;90.00;;;;;;4987137;28;20239;-52
2023/10/05 10:47:26;;;;;;;6.30;2.93;;;17.60;37.60;;;;;;4987876;28;20314;-53
2023/10/05 10:50:10;;;;;;;7.27;2.70;;;17.60;44.70;;;;;;4989763;28;20733;-53
2023/10/05 10:52:40;;;;;;;8.30;2.88;;;17.70;1.00;;;;;;4982212;28;20487;-53
2023/10/05 10:55:14;;;;;;;6.63;2.63;;;17.80;1.00;;;;;;4983002;28;20211;-54
2023/10/05 10:57:45;;;;;;;7.10;2.40;;;17.80;99.90;;;;;;4985701;28;20226;-53
2023/10/05 11:03:09;;;;;;;7.40;2.70;;;17.80;99.90;;;;;;4987956;28;20231;-54
2023/10/05 11:05:39;;;;;;;7.33;2.83;;;17.90;99.90;;;;;;4980582;28;20230;-52
2023/10/05 11:08:12;;;;;;;8.93;2.63;;;18.00;99.90;;;;;;4985870;28;20266;-55
2023/10/05 11:10:41;;;;;;;6.87;2.40;;;18.10;99.90;;;;;;4982104;28;20270;-52
2023/10/05 11:13:17;;;;;;;6.00;2.53;;;18.00;99.90;;;;;;4987237;28;20187;-53
2023/10/05 11:15:57;;;;;;;5.53;2.53;;;18.10;99.90;;;;;;4983605;28;20223;-52
2023/10/05 11:18:30;;;;;;;4.83;1.97;;;18.00;99.90;;;;;;4985631;28;20632;-55
2023/10/05 11:21:09;;;;;;;5.13;2.37;;;17.90;99.90;;;;;;4980351;28;20230;-53
2023/10/05 11:23:55;;;;;;;3.83;1.83;;;18.10;99.90;;;;;;4988887;28;20237;-54
2023/10/05 11:26:33;;;;;;;3.30;1.80;;;18.10;99.90;;;;;;4983666;28;20225;-53
2023/10/05 11:29:28;;;;;;;6.73;2.40;;;18.10;99.90;;;;;;4987776;28;20242;-53
2023/10/05 11:32:03;;;;;;;5.50;1.97;;;18.10;99.90;;;;;;4988502;28;20309;-54
2023/10/05 11:34:55;;;;;;;7.73;1.97;;;18.10;99.90;;;;;;4985127;28;20226;-53
2023/10/05 11:37:45;;;;;;;5.50;2.00;;;18.20;99.90;;;;;;4986649;28;20322;-55
2023/10/05 11:40:19;;;;;;;3.47;2.07;;;18.30;99.90;;;;;;4984381;28;20195;-52
2023/10/05 11:42:48;;;;;;;6.13;2.50;;;18.40;99.90;;;;;;4986928;28;20222;-52
2023/10/05 11:45:18;;;;;;;7.50;2.30;;;18.40;99.90;;;;;;4978241;28;20266;-53
2023/10/05 11:47:52;;;;;;;7.30;2.43;;;18.40;99.90;;;;;;4988020;28;20701;-55
2023/10/05 11:50:25;;;;;;;5.23;2.00;;;18.50;99.90;;;;;;4982066;28;20281;-54
2023/10/05 11:52:54;;;;;;;4.03;2.30;;;18.50;99.90;;;;;;4977784;28;20326;-53
2023/10/05 11:55:24;;;;;;;4.77;2.00;;;18.60;99.90;;;;;;4983387;28;20219;-52
2023/10/05 11:57:53;;;;;;;4.20;2.00;;;18.60;99.90;;;;;;4969079;28;20200;-52
2023/10/05 12:00:31;;;;;;;6.10;2.10;;;18.60;99.90;;;;;;4981239;28;20274;-51
2023/10/05 12:02:59;;;;;;;5.90;2.30;;;18.80;99.90;;;;;;4979316;28;20218;-53
2023/10/05 12:05:30;;;;;;;6.30;2.40;;;18.90;99.90;;;;;;4989315;28;20227;-52
2023/10/05 12:07:59;;;;;;;9.50;2.67;;;19.10;99.90;;;;;;4993672;28;20289;-55
2023/10/05 12:10:32;;;;;;;5.47;2.27;;;19.30;99.90;;;;;;4978064;28;20289;-51
2023/10/05 12:13:02;;;;;;;5.60;2.03;;;19.40;99.90;;;;;;4983855;28;20646;-52
2023/10/05 12:15:31;;;;;;;4.73;2.30;;;19.40;99.90;;;;;;4988616;28;20222;-54
2023/10/05 12:17:59;;;;;;;7.93;2.30;;;19.20;99.90;;;;;;4985233;28;20580;-53
2023/10/05 12:20:29;;;;;;;4.33;2.07;;;19.10;99.90;;;;;;4984558;28;20585;-54
2023/10/05 12:23:00;;;;;;;4.97;2.20;;;18.90;99.90;;;;;;4988619;28;20250;-54
2023/10/05 12:25:29;;;;;;;6.37;2.00;;;19.10;99.90;;;;;;4986394;28;20202;-52
2023/10/05 12:27:58;;;;;;;4.30;2.20;;;19.10;99.90;;;;;;4986381;28;20744;-54
2023/10/05 12:30:27;;;;;;;2.80;1.80;;;19.20;99.90;;;;;;4987760;28;20230;-51
2023/10/05 12:32:56;;;;;;;5.70;2.27;;;19.40;99.90;;;;;;4983494;28;20757;-54
2023/10/05 12:35:29;;;;;;;3.53;1.70;;;19.50;99.90;;;;;;4985537;28;20692;-53
2023/10/05 12:37:58;;;;;;;4.77;2.03;;;19.80;99.90;;;;;;4985095;28;20716;-54
2023/10/05 12:40:26;;;;;;;3.50;2.00;;;19.90;99.90;;;;;;4984438;28;20199;-53
2023/10/05 12:42:56;;;;;;;9.83;2.17;;;19.80;99.90;;;;;;4986552;28;20338;-52
2023/10/05 12:45:44;;;;;;;3.27;1.73;;;19.70;99.90;;;;;;4982274;28;20249;-54
2023/10/05 12:48:14;;;;;;;5.00;2.00;;;19.70;99.90;;;;;;4980024;28;20227;-53
2023/10/05 12:50:43;;;;;;;4.57;1.87;;;19.70;99.90;;;;;;4983178;28;20241;-51
2023/10/05 12:53:11;;;;;;;5.87;1.90;;;19.80;99.90;;;;;;4982725;28;20219;-55
2023/10/05 12:55:40;;;;;;;7.37;1.87;;;19.80;99.90;;;;;;4983454;28;20247;-52
2023/10/05 12:58:09;;;;;;;4.67;2.23;;;20.00;99.90;;;;;;4979061;28;20210;-52
2023/10/05 13:00:41;;;;;;;4.63;1.93;;;20.10;99.90;;;;;;4984035;28;20233;-50
2023/10/05 13:03:13;;;;;;;3.73;1.60;;;20.10;99.90;;;;;;4981176;28;20633;-53
2023/10/05 13:05:45;;;;;;;4.87;1.87;;;20.20;99.90;;;;;;4984897;28;20297;-53
2023/10/05 13:08:15;;;;;;;2.43;1.60;;;20.10;99.90;;;;;;4978552;28;20231;-53
2023/10/05 13:10:44;;;;;;;2.33;1.77;;;20.00;99.90;;;;;;4980077;28;20227;-52